PWSweather.com
Personal Weather Stations
Station Observations
BREEJEDURP
'sGravenzande, WestlandNL

'sGravenzandeWestlandNL

Lat: 52.00095260000001, Lon: 4.174256600000035

Elevation: 3

Station Type: Davis Vantage Pro2 Plus

Latest ConditionsUpdated 11:10:00 PM GMT+01:01 Friday, Oct 18, 2019
Currently Today's Max Today's Min Today's Average
Temperature 52.9°F11.6°C 56.8°F13.8°C 52.5°F11.4°C 55.0°F12.8°C
Dew Point 48.2°F9.0°C 54.2°F12.3°C 47.5°F8.6°C 51.1°F10.6°C
Winds 7.0 mph SE11.3 kmh SE 17.0 mph -27.4 kmh - - 7.5 mph 12.1 kmh
Wind Gusts 9.0 mph14.5 kmh 25.0 mph40.2 kmh - -
Humidity 84% 94% 79% 87%
Pressure 29.63 in1003.4 mb 29.69 in1005.4 mb 29.52 in999.7 mb -
Hour Temp Dew Point Humidity Winds Wind Gusts Pressure Precip Precip Rate Daily Precip Total
11:10 PM 52.9°F11.6°C 48.2°F9.0°C 84% 7.0 mph SE11.3 kmh SE 9.0 mph14.5 kmh 29.63 in1003.4 mb 0.00 in0.0 mm 0.00 in0.0 mm 0.00 in0.0 mm
11:05 PM 52.9°F11.6°C 48.2°F9.0°C 84% 7.0 mph SSW11.3 kmh SSW 10.0 mph16.1 kmh 29.63 in1003.4 mb 0.00 in0.0 mm 0.00 in0.0 mm 0.00 in0.0 mm
11:00 PM 52.9°F11.6°C 48.2°F9.0°C 84% 6.0 mph SSE9.7 kmh SSE 11.0 mph17.7 kmh 29.63 in1003.4 mb 0.00 in0.0 mm 0.00 in0.0 mm 0.00 in0.0 mm
09:10 PM 52.5°F11.4°C 47.8°F8.8°C 84% 6.0 mph SSE9.7 kmh SSE 11.0 mph17.7 kmh 29.65 in1004.1 mb 0.00 in0.0 mm 0.00 in0.0 mm 0.13 in3.3 mm
09:05 PM 52.9°F11.6°C 47.9°F8.8°C 83% 5.0 mph SSE8.0 kmh SSE 7.0 mph11.3 kmh 29.65 in1004.1 mb 0.00 in0.0 mm 0.00 in0.0 mm 0.13 in3.3 mm
09:00 PM 52.9°F11.6°C 47.5°F8.6°C 82% 9.0 mph SSE14.5 kmh SSE 13.0 mph20.9 kmh 29.65 in1004.1 mb 0.00 in0.0 mm 0.00 in0.0 mm 0.13 in3.3 mm
07:10 PM 54.7°F12.6°C 49.6°F9.8°C 83% 9.0 mph S14.5 kmh S 12.0 mph19.3 kmh 29.65 in1004.1 mb 0.00 in0.0 mm 0.00 in0.0 mm 0.13 in3.3 mm
07:05 PM 54.7°F12.6°C 49.9°F9.9°C 84% 6.0 mph SSW9.7 kmh SSW 10.0 mph16.1 kmh 29.65 in1004.1 mb 0.00 in0.0 mm 0.00 in0.0 mm 0.13 in3.3 mm
07:00 PM 54.7°F12.6°C 49.9°F9.9°C 84% 6.0 mph S9.7 kmh S 11.0 mph17.7 kmh 29.65 in1004.1 mb 0.00 in0.0 mm 0.00 in0.0 mm 0.13 in3.3 mm
05:10 PM 54.5°F12.5°C 49.1°F9.5°C 82% 14.0 mph SSW22.5 kmh SSW 22.0 mph35.4 kmh 29.64 in1003.7 mb 0.00 in0.0 mm 0.00 in0.0 mm 0.13 in3.3 mm
05:05 PM 54.3°F12.4°C 48.9°F9.4°C 82% 11.0 mph SSW17.7 kmh SSW 19.0 mph30.6 kmh 29.64 in1003.7 mb 0.00 in0.0 mm 0.00 in0.0 mm 0.13 in3.3 mm
05:00 PM 54.3°F12.4°C 49.3°F9.6°C 83% 7.0 mph S11.3 kmh S 11.0 mph17.7 kmh 29.63 in1003.4 mb 0.00 in0.0 mm 0.00 in0.0 mm 0.13 in3.3 mm
03:10 PM 55.8°F13.2°C 50.4°F10.2°C 82% 8.0 mph SSW12.9 kmh SSW 11.0 mph17.7 kmh 29.61 in1002.7 mb 0.00 in0.0 mm 0.00 in0.0 mm 0.13 in3.3 mm
03:05 PM 55.8°F13.2°C 50.4°F10.2°C 82% 10.0 mph S16.1 kmh S 16.0 mph25.7 kmh 29.61 in1002.7 mb 0.00 in0.0 mm 0.00 in0.0 mm 0.13 in3.3 mm
03:00 PM 55.4°F13.0°C 50.3°F10.2°C 83% 8.0 mph SW12.9 kmh SW 15.0 mph24.1 kmh 29.61 in1002.7 mb 0.00 in0.0 mm 0.00 in0.0 mm 0.13 in3.3 mm
01:10 PM 56.7°F13.7°C 50.2°F10.1°C 79% 12.0 mph SSW19.3 kmh SSW 25.0 mph40.2 kmh 29.58 in1001.7 mb 0.00 in0.0 mm 0.00 in0.0 mm 0.11 in2.8 mm
01:05 PM 56.5°F13.6°C 50.4°F10.2°C 80% 17.0 mph WSW27.4 kmh WSW 25.0 mph40.2 kmh 29.57 in1001.4 mb 0.00 in0.0 mm 0.00 in0.0 mm 0.11 in2.8 mm
01:00 PM 56.3°F13.5°C 50.5°F10.3°C 81% 16.0 mph SW25.7 kmh SW 22.0 mph35.4 kmh 29.57 in1001.4 mb 0.00 in0.0 mm 0.00 in0.0 mm 0.11 in2.8 mm
11:10 AM 55.4°F13.0°C 50.0°F10.0°C 82% 15.0 mph SW24.1 kmh SW 21.0 mph33.8 kmh 29.53 in1000.0 mb 0.00 in0.0 mm 0.00 in0.0 mm 0.10 in2.5 mm
11:05 AM 55.2°F12.9°C 50.1°F10.1°C 83% 9.0 mph SSW14.5 kmh SSW 15.0 mph24.1 kmh 29.53 in1000.0 mb 0.00 in0.0 mm 0.00 in0.0 mm 0.10 in2.5 mm
11:00 AM 55.2°F12.9°C 50.8°F10.4°C 85% 10.0 mph S16.1 kmh S 18.0 mph29.0 kmh 29.53 in1000.0 mb 0.00 in0.0 mm 0.00 in0.0 mm 0.10 in2.5 mm
09:10 AM 56.8°F13.8°C 53.9°F12.2°C 90% 5.0 mph SSE8.0 kmh SSE 7.0 mph11.3 kmh 29.52 in999.7 mb 0.00 in0.0 mm 0.00 in0.0 mm 0.00 in0.0 mm
09:05 AM 56.8°F13.8°C 54.2°F12.3°C 91% 8.0 mph SSE12.9 kmh SSE 12.0 mph19.3 kmh 29.52 in999.7 mb 0.00 in0.0 mm 0.00 in0.0 mm 0.00 in0.0 mm
09:00 AM 56.8°F13.8°C 54.2°F12.3°C 91% 9.0 mph ESE14.5 kmh ESE 19.0 mph30.6 kmh 29.52 in999.7 mb 0.00 in0.0 mm 0.00 in0.0 mm 0.00 in0.0 mm
07:10 AM 55.2°F12.9°C 53.2°F11.8°C 93% 5.0 mph SSE8.0 kmh SSE 8.0 mph12.9 kmh 29.57 in1001.4 mb 0.00 in0.0 mm 0.00 in0.0 mm 0.00 in0.0 mm
07:05 AM 55.2°F12.9°C 53.5°F11.9°C 94% 3.0 mph ESE4.8 kmh ESE 6.0 mph9.7 kmh 29.57 in1001.4 mb 0.00 in0.0 mm 0.00 in0.0 mm 0.00 in0.0 mm
07:00 AM 55.0°F12.8°C 53.3°F11.8°C 94% 5.0 mph SSE8.0 kmh SSE 9.0 mph14.5 kmh 29.57 in1001.4 mb 0.00 in0.0 mm 0.00 in0.0 mm 0.00 in0.0 mm
05:10 AM 55.2°F12.9°C 53.5°F11.9°C 94% 4.0 mph SSE6.4 kmh SSE 7.0 mph11.3 kmh 29.61 in1002.7 mb 0.00 in0.0 mm 0.00 in0.0 mm 0.00 in0.0 mm
05:05 AM 55.2°F12.9°C 53.5°F11.9°C 94% 5.0 mph SSE8.0 kmh SSE 9.0 mph14.5 kmh 29.61 in1002.7 mb 0.00 in0.0 mm 0.00 in0.0 mm 0.00 in0.0 mm
05:00 AM 55.4°F13.0°C 53.7°F12.1°C 94% 4.0 mph SE6.4 kmh SE 8.0 mph12.9 kmh 29.61 in1002.7 mb 0.00 in0.0 mm 0.00 in0.0 mm 0.00 in0.0 mm
03:10 AM 55.0°F12.8°C 53.1°F11.7°C 93% 3.0 mph SSE4.8 kmh SSE 6.0 mph9.7 kmh 29.65 in1004.1 mb 0.00 in0.0 mm 0.00 in0.0 mm 0.00 in0.0 mm
03:05 AM 55.2°F12.9°C 53.2°F11.8°C 93% 4.0 mph SSE6.4 kmh SSE 6.0 mph9.7 kmh 29.65 in1004.1 mb 0.00 in0.0 mm 0.00 in0.0 mm 0.00 in0.0 mm
03:00 AM 55.2°F12.9°C 53.2°F11.8°C 93% 5.0 mph SSE8.0 kmh SSE 13.0 mph20.9 kmh 29.66 in1004.4 mb 0.00 in0.0 mm 0.00 in0.0 mm 0.00 in0.0 mm
01:10 AM 55.4°F13.0°C 53.4°F11.9°C 93% 5.0 mph SSE8.0 kmh SSE 7.0 mph11.3 kmh 29.69 in1005.4 mb 0.00 in0.0 mm 0.00 in0.0 mm 0.00 in0.0 mm
01:05 AM 55.4°F13.0°C 53.4°F11.9°C 93% 3.0 mph SE4.8 kmh SE 5.0 mph8.0 kmh 29.69 in1005.4 mb 0.00 in0.0 mm 0.00 in0.0 mm 0.00 in0.0 mm
01:00 AM 55.6°F13.1°C 53.6°F12.0°C 93% 4.0 mph SE6.4 kmh SE 8.0 mph12.9 kmh 29.69 in1005.4 mb 0.00 in0.0 mm 0.00 in0.0 mm 0.00 in0.0 mm